ADDS METAR Data INFO
IDs: Format: Raw Decoded Include TAF

Data at: 1524 UTC 18 Jun 2018

KJMR 181515Z AUTO 05005KT 10SM CLR 21/14 A3003 RMK AO2
KJMR 181455Z AUTO 03005KT 10SM CLR 21/14 A3003 RMK AO2
KJMR 181435Z AUTO 03003KT 10SM CLR 21/15 A3002 RMK AO2
KJMR 181415Z AUTO 03003KT 10SM CLR 21/16 A3002 RMK AO2
KJMR 181355Z AUTO 01003KT 10SM CLR 19/15 A3002 RMK AO2
KJMR 181335Z AUTO 00000KT 10SM CLR 18/15 A3002 RMK AO2
KJMR 181315Z AUTO 00000KT 10SM CLR 18/15 A3001 RMK AO2
KJMR 181255Z AUTO 01003KT 10SM CLR 18/16 A3001 RMK AO2
KJMR 181235Z AUTO 04004KT 10SM SCT050 18/16 A3001 RMK AO2
KJMR 181215Z AUTO 00000KT 10SM BKN050 18/16 A3000 RMK AO2
KJMR 181155Z AUTO 00000KT 10SM SCT050 SCT090 17/15 A3000 RMK AO2
KJMR 181135Z AUTO 02003KT 10SM SCT041 SCT049 BKN090 17/15 A2999 RMK AO2
KJMR 181115Z AUTO 36003KT 10SM BKN041 BKN049 17/15 A2999 RMK AO2
KJMR 181055Z AUTO 00000KT 10SM OVC041 17/15 A2998 RMK AO2
KJMR 181035Z AUTO 00000KT 10SM OVC039 17/16 A2999 RMK AO2
KJMR 181015Z AUTO 02003KT 10SM BKN037 OVC060 17/16 A2997 RMK AO2
KJMR 180955Z AUTO 00000KT 10SM SCT037 BKN047 BKN060 17/16 A2997 RMK AO2
KJMR 180935Z AUTO 00000KT 10SM OVC037 17/16 A2996 RMK AO2
KJMR 180915Z AUTO 35003KT 10SM OVC035 17/16 A2995 RMK AO2
KJMR 180855Z AUTO 35003KT 10SM OVC033 17/16 A2995 RMK AO2
KJMR 180835Z AUTO 36003KT 10SM OVC031 18/17 A2993 RMK AO2
KJMR 180815Z AUTO 36004KT 10SM OVC031 18/17 A2993 RMK AO2
KJMR 180755Z AUTO 01003KT 10SM BKN031 BKN047 BKN080 18/17 A2993 RMK AO2
KJMR 180735Z AUTO 00000KT 10SM SCT049 SCT080 18/17 A2992 RMK AO2 LTG DSNT SE
KJMR 180715Z AUTO 00000KT 10SM SCT049 SCT080 18/17 A2992 RMK AO2
KJMR 180655Z AUTO 02003KT 10SM SCT013 18/17 A2991 RMK AO2 LTG DSNT SE P0001
KJMR 180635Z AUTO 03004KT 10SM RA SCT008 SCT013 18/17 A2991 RMK AO2
KJMR 180615Z AUTO 00000KT 10SM RA SCT015 18/17 A2991 RMK AO2 LTG DSNT SE AND S
KJMR 180555Z AUTO 36004KT 10SM RA BKN013 18/17 A2992 RMK AO2 P0004
KJMR 180535Z AUTO 36003KT 10SM -DZ OVC011 18/17 A2993 RMK AO2 P0003
KJMR 180515Z AUTO 36003KT 7SM RA OVC011 18/17 A2993 RMK AO2 P0003
KJMR 180455Z AUTO 36004KT 10SM -RA OVC011 18/17 A2992 RMK AO2 P0004
KJMR 180435Z AUTO 36005KT 7SM RA BKN011 20/18 A2992 RMK AO2 P0002
KJMR 180415Z AUTO 34005KT 10SM -RA SCT011 SCT095 20/18 A2991 RMK AO2
KJMR 180355Z AUTO 36004KT 10SM CLR 20/18 A2990 RMK AO2
KJMR 180335Z AUTO 34004KT 10SM CLR 21/20 A2990 RMK AO2
KJMR 180315Z AUTO 33006KT 10SM CLR 21/20 A2989 RMK AO2
KJMR 180256Z AUTO 33003KT 10SM CLR 21/20 A2988 RMK AO2
KJMR 180255Z AUTO 33003KT 10SM CLR 21/20 A2988 RMK AO2
KJMR 180235Z AUTO 33004KT 10SM CLR 21/20 A2988 RMK AO2
KJMR 180216Z AUTO 00000KT 10SM SCT013 SCT020 SCT029 21/20 A2988 RMK AO2
KJMR 180215Z AUTO 00000KT 10SM SCT015 SCT020 SCT029 21/20 A2988 RMK AO2
KJMR 180155Z AUTO 00000KT 10SM BKN015 BKN020 OVC034 21/19 A2989 RMK AO2
KJMR 180135Z AUTO 00000KT 10SM SCT028 SCT035 BKN042 21/19 A2988 RMK AO2
KJMR 180115Z AUTO 00000KT 10SM SCT042 SCT095 21/19 A2987 RMK AO2
KJMR 180055Z AUTO 00000KT 10SM SCT070 SCT085 21/18 A2986 RMK AO2
KJMR 180035Z AUTO 32003KT 10SM SCT060 SCT085 21/18 A2985 RMK AO2
KJMR 180015Z AUTO 32005KT 10SM SCT060 21/18 A2985 RMK AO2
KJMR 172355Z AUTO 31004KT 10SM BKN060 BKN070 21/18 A2985 RMK AO2
KJMR 172335Z AUTO 33005KT 10SM -DZ SCT065 21/18 A2984 RMK AO2 LTG DSNT SE
KJMR 172316Z AUTO 32006KT 10SM SCT065 21/18 A2985 RMK AO2 LTG DSNT E
KJMR 172315Z AUTO 32006KT 10SM SCT065 21/18 A2985 RMK AO2 LTG DSNT E
KJMR 172255Z AUTO 36003KT 10SM SCT050 SCT060 22/18 A2984 RMK AO2 LTG DSNT SE
KJMR 172235Z AUTO 00000KT 10SM CLR 23/19 A2984 RMK AO2 LTG DSNT SE
KJMR 172215Z AUTO 03003KT 10SM SCT044 SCT080 23/18 A2984 RMK AO2
KJMR 172155Z AUTO 36003KT 10SM SCT018 BKN037 BKN045 23/20 A2983 RMK AO2
KJMR 172135Z AUTO 17003KT 10SM VCTS SCT033 SCT048 SCT055 23/18 A2986 RMK AO2 LTG DSNT E THRU S
KJMR 172115Z AUTO 34004KT 10SM VCTS SCT027 BKN031 BKN044 23/18 A2983 RMK AO2 LTG DSNT E AND SE
KJMR 172055Z AUTO 00000KT 10SM VCTS SCT027 BKN035 21/18 A2983 RMK AO2 LTG DSNT E THRU S P0001
KJMR 172035Z AUTO 34005KT 10SM VCTS SCT027 BKN033 BKN040 21/19 A2982 RMK AO2 LTG DSNT E THRU S P0001
KJMR 172015Z AUTO 35005KT 10SM SCT003 SCT007 OVC034 21/20 A2982 RMK AO2 LTG DSNT ALQS P0001
KJMR 171955Z AUTO 31003KT 3/4SM +TSRA BKN003 OVC006 20/18 A2982 RMK AO2 LTG DSNT ALQS P0051
KJMR 171935Z AUTO 12005G24KT 7SM -TSRA SCT009 BKN029 OVC050 22/17 A2981 RMK AO2 LTG DSNT ALQS
KJMR 171915Z AUTO 22009KT 180V240 10SM SCT030 SCT038 SCT050 26/21 A2978 RMK AO2 LTG DSNT NE THRU S
KJMR 171855Z AUTO 20012G16KT 10SM SCT027 SCT032 SCT041 29/23 A2977 RMK AO2 LTG DSNT SE
KJMR 171835Z AUTO 21013G20KT 10SM SCT025 SCT032 SCT039 30/23 A2978 RMK AO2 LTG DSNT E THRU S
KJMR 171815Z AUTO 20006KT 10SM SCT025 BKN034 BKN041 26/22 A2979 RMK AO2 LTG DSNT E AND SE
KJMR 171755Z AUTO 20010KT 10SM SCT023 OVC032 26/22 A2979 RMK AO2 LTG DSNT S
KJMR 171735Z AUTO 19007KT 10SM SCT020 BKN026 26/21 A2979 RMK AO2
KJMR 171715Z AUTO 17007KT 10SM SCT018 26/21 A2979 RMK AO2 LTG DSNT SE AND S
KJMR 171655Z AUTO 16006KT 10SM SCT018 26/21 A2980 RMK AO2 LTG DSNT SE
KJMR 171635Z AUTO 16007KT 10SM SCT014 26/21 A2981 RMK AO2 LTG DSNT SE AND S
KJMR 171615Z AUTO 16006KT 10SM SCT011 25/21 A2982 RMK AO2
KJMR 171555Z AUTO 14006KT 10SM SCT011 24/20 A2981 RMK AO2
KJMR 171535Z AUTO 14009KT 10SM SCT011 SCT080 24/21 A2982 RMK AO2
KJMR 171515Z AUTO 14007KT 10SM SCT009 24/20 A2982 RMK AO2
KJMR 171455Z AUTO 13006KT 10SM BKN009 BKN038 23/20 A2983 RMK AO2
KJMR 171435Z AUTO 15004KT 10SM BKN007 BKN012 BKN038 23/20 A2983 RMK AO2
KJMR 171415Z AUTO 12006KT 10SM SCT007 BKN012 BKN038 21/20 A2983 RMK AO2 LTG DSNT E AND SE
KJMR 171355Z AUTO 12005KT 10SM BKN007 BKN036 21/21 A2983 RMK AO2
KJMR 171335Z AUTO 12006KT 10SM SCT007 BKN038 20/19 A2984 RMK AO2
KJMR 171315Z AUTO 12007KT 10SM SCT005 SCT040 20/20 A2984 RMK AO2
KJMR 171255Z AUTO 11007KT 10SM SCT005 SCT040 SCT055 20/19 A2983 RMK AO2 P0001
KJMR 171235Z AUTO 11006KT 10SM SCT007 SCT012 BKN017 18/18 A2984 RMK AO2 P0001
KJMR 171215Z AUTO 12004KT 10SM -TSRA OVC005 18/18 A2983 RMK AO2 LTG DSNT E THRU S
KJMR 171155Z AUTO 13003KT 10SM BKN005 OVC033 18/18 A2984 RMK AO2 LTG DSNT E AND SE
KJMR 171135Z AUTO 12003KT 10SM SCT005 OVC035 18/18 A2983 RMK AO2
KJMR 171115Z AUTO 11004KT 10SM SCT005 BKN035 18/18 A2982 RMK AO2
KJMR 171055Z AUTO 00000KT 10SM SCT005 BKN037 BKN080 18/18 A2982 RMK AO2
KJMR 171035Z AUTO 00000KT 10SM SCT005 OVC037 18/18 A2982 RMK AO2 LTG DSNT S
KJMR 171015Z AUTO 00000KT 10SM BKN005 OVC039 18/18 A2982 RMK AO2 LTG DSNT E
KJMR 170955Z AUTO 11003KT 10SM BKN005 OVC041 18/18 A2982 RMK AO2 LTG DSNT E
KJMR 170935Z AUTO 11006KT 10SM SCT005 OVC041 18/18 A2981 RMK AO2 LTG DSNT E
KJMR 170915Z AUTO 13006KT 10SM SCT005 OVC043 18/18 A2981 RMK AO2 LTG DSNT E AND SE
KJMR 170855Z AUTO 12007KT 10SM -TSRA SCT006 SCT012 OVC043 18/18 A2981 RMK AO2 LTG DSNT NE AND E P0057
KJMR 170835Z AUTO 11005KT 4SM -RA SCT002 BKN008 OVC043 18/18 A2981 RMK AO2 LTG DSNT NE THRU S P0056
KJMR 170815Z AUTO 14006KT 4SM /VCTSRA SCT004 BKN008 OVC022 18/17 A2983 RMK AO2 LTG DSNT ALQS P0032
KJMR 170755Z AUTO 32006KT 7SM +RA SCT007 SCT015 OVC043 18/17 A2983 RMK AO2 LTG DSNT E THRU S P0003
KJMR 170735Z AUTO 16003KT 10SM BKN046 OVC050 18/17 A2979 RMK AO2 LTG DSNT E THRU S
KJMR 170715Z AUTO 12003KT 10SM SCT050 SCT060 BKN080 19/17 A2978 RMK AO2 LTG DSNT E THRU S
KJMR 170655Z AUTO 00000KT 10SM SCT060 SCT080 18/17 A2978 RMK AO2 LTG DSNT NE THRU SE P0045
KJMR 170635Z AUTO 32009KT 10SM -VCTSRA SCT007 SCT013 BKN060 18/17 A2979 RMK AO2 LTG DSNT NE THRU S P0045
KJMR 170615Z AUTO 35007G20KT 2SM +TSRA OVC007 18/17 A2980 RMK AO2 VIS 1 1/2V5 LTG DSNT NE THRU S P0037
KJMR 170555Z AUTO 33020G27KT 1 1/4SM /VCTSRA BKN005 OVC014 20/18 A2983 RMK AO2 LTG DSNT ALQS P0053
KJMR 170535Z AUTO 24004KT 7SM RA SCT010 BKN041 OVC055 24/22 A2976 RMK AO2 LTG DSNT NE THRU S P0003
KJMR 170515Z AUTO 29003KT 10SM -RA SCT037 BKN055 24/22 A2977 RMK AO2 LTG DSNT NE THRU SE P0001
KJMR 170455Z AUTO 27003KT 10SM -RA SCT008 SCT013 BKN050 25/22 A2976 RMK AO2 LTG DSNT NE THRU S
KJMR 170435Z AUTO 22007KT 10SM -RA CLR 25/22 A2973 RMK AO2 LTG DSNT E THRU S
KJMR 170416Z AUTO 19007KT 10SM CLR 24/21 A2971 RMK AO2 LTG DSNT NE THRU S
KJMR 170415Z AUTO 19006KT 10SM CLR 24/21 A2970 RMK AO2 LTG DSNT NE THRU S
KJMR 170355Z AUTO 16005KT 10SM VCTS SCT060 24/22 A2970 RMK AO2 LTG DSNT NE THRU S
KJMR 170335Z AUTO 12006KT 10SM BKN060 23/21 A2970 RMK AO2 LTG DSNT E THRU S